Pagrindinis puslapis
METAR-TAF:

METAR-TAF

Oro uostai :

Aigen im Ennstal, Austrija

platuma: 47-32N, ilguma: 014-08E, Aukštis: 638 m

METAR: trūkstamas

Laikas: 12:18 (10:18 UTC)

Prognozė

Ataskaita buvo paskelbta 2 valandos ir 3 minutes, ne 08:15 UTC
Prognozė galioja nuo 20 metu 09 UTC su 20 metu 18 UTC
Vėjas 3 kt nuo kintamojo kryptimis
Matomumas 10 km arba daugiau
Mažai debesys ne aukštis 6000 ft
Su prošvaistėmis ne aukštis 30000 ft
Laikinai
nuo 20 metu 09 UTC su 20 metu 18 UTC
Vėjas 7 kt iš Šiaurės Rytų
Išsisklaidę debesys ne aukštis 30000 ft

TAF: LOXA 200815Z 2009/2018 VRB03KT 9999 FEW060 BKN300 TEMPO 2009/2018 05007KT SCT300

Orai ataskaitas ir orų prognozės (METAR, TAF).

turimą stotys yra geltonos ir raudonos taškus žemėlapyje.

Perkelti pele per norėdami pamatyti stoties vardą.

Tada spustelėkite, norėdami matyti oro stebėjimo ir prognozės.

Norėdami pakeisti žemėlapį: spustelėkite ant žalios mygtukų su juodo kryžiaus žemyn,; žalią mygtuką su brūkšneliu, jei norite nutolinti; arba žalių rodyklių gretimoms žemėlapius.


METAR-TAF: